Dalton-in-Furness, United Kingdom
Current Conditions -  °F | °C
As of 6:20 AM on Thursday 29 Jan 2015 (Local Time) from EGNH Reporting Station
Hail Hail  
Wind Chill: 27°   Ceiling: Unl
Heat Index: 37°   Visibility: 6mi
Dew Point: 34°   Wind: 22mph
Humidity: 87%   Direction: 280°W
Pressure: 29.06"   Gusts: NA
Location:  54.15°N, 3.17°W
Report Text: EGNH 290620Z 28019KT 9999 -SHRAGS FEW010 SCT023 03/01 Q0984
Loading
Personal Weather Stations






























Interactive Weather Map New forecast layout! Learn more

10-Day Weather Forecast

Advertisements
Track Severe Weather on mobile